sensor_id;sensor_type;location;lat;lon;timestamp;temperature;humidity
27026;DHT22;14565;48.626;8.978;2022-10-16T00:01:19;14.50;99.90
27026;DHT22;14565;48.626;8.978;2022-10-16T00:03:46;14.50;99.90
27026;DHT22;14565;48.626;8.978;2022-10-16T00:06:13;14.40;99.90
27026;DHT22;14565;48.626;8.978;2022-10-16T00:08:39;14.40;99.90
27026;DHT22;14565;48.626;8.978;2022-10-16T00:11:13;14.40;99.90
27026;DHT22;14565;48.626;8.978;2022-10-16T00:13:40;14.30;99.90
27026;DHT22;14565;48.626;8.978;2022-10-16T00:16:07;14.30;99.90
27026;DHT22;14565;48.626;8.978;2022-10-16T00:18:34;14.20;99.90
27026;DHT22;14565;48.626;8.978;2022-10-16T00:21:08;14.20;99.90
27026;DHT22;14565;48.626;8.978;2022-10-16T00:23:34;14.20;99.90
27026;DHT22;14565;48.626;8.978;2022-10-16T00:26:05;14.20;99.90
27026;DHT22;14565;48.626;8.978;2022-10-16T00:28:32;14.20;99.90
27026;DHT22;14565;48.626;8.978;2022-10-16T00:30:58;14.20;99.90
27026;DHT22;14565;48.626;8.978;2022-10-16T00:33:23;14.10;99.90
27026;DHT22;14565;48.626;8.978;2022-10-16T00:35:49;14.10;99.90
27026;DHT22;14565;48.626;8.978;2022-10-16T00:38:15;14.00;99.90
27026;DHT22;14565;48.626;8.978;2022-10-16T00:40:41;14.00;99.90
27026;DHT22;14565;48.626;8.978;2022-10-16T00:48:39;14.00;99.90
27026;DHT22;14565;48.626;8.978;2022-10-16T00:51:06;13.90;99.90
27026;DHT22;14565;48.626;8.978;2022-10-16T00:53:33;14.00;99.90
27026;DHT22;14565;48.626;8.978;2022-10-16T00:55:58;14.00;99.90
27026;DHT22;14565;48.626;8.978;2022-10-16T00:58:24;14.00;99.90
27026;DHT22;14565;48.626;8.978;2022-10-16T01:00:50;14.00;99.90
27026;DHT22;14565;48.626;8.978;2022-10-16T01:08:57;14.00;99.90
27026;DHT22;14565;48.626;8.978;2022-10-16T01:11:38;14.00;99.90
27026;DHT22;14565;48.626;8.978;2022-10-16T01:14:45;14.10;99.90
27026;DHT22;14565;48.626;8.978;2022-10-16T01:17:26;14.00;99.90
27026;DHT22;14565;48.626;8.978;2022-10-16T01:23:01;14.00;99.90
27026;DHT22;14565;48.626;8.978;2022-10-16T01:28:25;13.90;99.90
27026;DHT22;14565;48.626;8.978;2022-10-16T01:30:55;14.00;99.90
27026;DHT22;14565;48.626;8.978;2022-10-16T01:33:29;14.00;99.90
27026;DHT22;14565;48.626;8.978;2022-10-16T01:35:59;14.00;99.90
27026;DHT22;14565;48.626;8.978;2022-10-16T01:38:36;14.00;99.90
27026;DHT22;14565;48.626;8.978;2022-10-16T01:41:39;14.10;99.90
27026;DHT22;14565;48.626;8.978;2022-10-16T01:44:25;14.10;99.90
27026;DHT22;14565;48.626;8.978;2022-10-16T01:46:52;14.10;99.90
27026;DHT22;14565;48.626;8.978;2022-10-16T01:49:21;14.10;99.90
27026;DHT22;14565;48.626;8.978;2022-10-16T01:51:50;14.10;99.90
27026;DHT22;14565;48.626;8.978;2022-10-16T01:54:19;14.10;99.90
27026;DHT22;14565;48.626;8.978;2022-10-16T01:56:46;14.10;99.90
27026;DHT22;14565;48.626;8.978;2022-10-16T01:59:16;14.10;99.90
27026;DHT22;14565;48.626;8.978;2022-10-16T02:01:49;14.10;99.90
27026;DHT22;14565;48.626;8.978;2022-10-16T02:04:18;14.00;99.90
27026;DHT22;14565;48.626;8.978;2022-10-16T02:06:44;14.10;99.90
27026;DHT22;14565;48.626;8.978;2022-10-16T02:09:10;14.00;99.90
27026;DHT22;14565;48.626;8.978;2022-10-16T02:11:36;14.10;99.90
27026;DHT22;14565;48.626;8.978;2022-10-16T02:14:04;14.10;99.90
27026;DHT22;14565;48.626;8.978;2022-10-16T02:16:39;14.20;99.90
27026;DHT22;14565;48.626;8.978;2022-10-16T02:19:06;14.30;99.90
27026;DHT22;14565;48.626;8.978;2022-10-16T02:21:49;14.40;99.90
27026;DHT22;14565;48.626;8.978;2022-10-16T02:29:38;14.40;99.90
27026;DHT22;14565;48.626;8.978;2022-10-16T02:32:06;14.40;99.90
27026;DHT22;14565;48.626;8.978;2022-10-16T02:34:33;14.30;99.90
27026;DHT22;14565;48.626;8.978;2022-10-16T02:37:01;14.30;99.90
27026;DHT22;14565;48.626;8.978;2022-10-16T02:39:29;14.30;99.90
27026;DHT22;14565;48.626;8.978;2022-10-16T02:41:55;14.30;99.90
27026;DHT22;14565;48.626;8.978;2022-10-16T02:44:20;14.30;99.90
27026;DHT22;14565;48.626;8.978;2022-10-16T02:46:46;14.30;99.90
27026;DHT22;14565;48.626;8.978;2022-10-16T02:49:11;14.30;99.90
27026;DHT22;14565;48.626;8.978;2022-10-16T02:51:37;14.30;99.90
27026;DHT22;14565;48.626;8.978;2022-10-16T02:54:03;14.40;99.90
27026;DHT22;14565;48.626;8.978;2022-10-16T02:56:29;14.40;99.90
27026;DHT22;14565;48.626;8.978;2022-10-16T02:58:55;14.40;99.90
27026;DHT22;14565;48.626;8.978;2022-10-16T03:01:21;14.30;99.90
27026;DHT22;14565;48.626;8.978;2022-10-16T03:03:46;14.40;99.90
27026;DHT22;14565;48.626;8.978;2022-10-16T03:06:12;14.40;99.90
27026;DHT22;14565;48.626;8.978;2022-10-16T03:08:38;14.30;99.90
27026;DHT22;14565;48.626;8.978;2022-10-16T03:11:04;14.30;99.90
27026;DHT22;14565;48.626;8.978;2022-10-16T03:13:30;14.30;99.90
27026;DHT22;14565;48.626;8.978;2022-10-16T03:15:55;14.30;99.90
27026;DHT22;14565;48.626;8.978;2022-10-16T03:18:21;14.40;99.90
27026;DHT22;14565;48.626;8.978;2022-10-16T03:20:47;14.40;99.90
27026;DHT22;14565;48.626;8.978;2022-10-16T03:23:12;14.30;99.90
27026;DHT22;14565;48.626;8.978;2022-10-16T03:25:38;14.40;99.90
27026;DHT22;14565;48.626;8.978;2022-10-16T03:28:04;14.40;99.90
27026;DHT22;14565;48.626;8.978;2022-10-16T03:30:29;14.30;99.90
27026;DHT22;14565;48.626;8.978;2022-10-16T03:32:55;14.30;99.90
27026;DHT22;14565;48.626;8.978;2022-10-16T03:35:22;14.30;99.90
27026;DHT22;14565;48.626;8.978;2022-10-16T03:37:49;14.40;99.90
27026;DHT22;14565;48.626;8.978;2022-10-16T03:40:15;14.40;99.90
27026;DHT22;14565;48.626;8.978;2022-10-16T03:42:42;14.40;99.90
27026;DHT22;14565;48.626;8.978;2022-10-16T03:45:09;14.40;99.90
27026;DHT22;14565;48.626;8.978;2022-10-16T03:47:34;14.40;99.90
27026;DHT22;14565;48.626;8.978;2022-10-16T03:50:00;14.50;99.90
27026;DHT22;14565;48.626;8.978;2022-10-16T03:52:26;14.40;99.90
27026;DHT22;14565;48.626;8.978;2022-10-16T03:54:51;14.40;99.90
27026;DHT22;14565;48.626;8.978;2022-10-16T03:57:17;14.50;99.90
27026;DHT22;14565;48.626;8.978;2022-10-16T03:59:43;14.50;99.90
27026;DHT22;14565;48.626;8.978;2022-10-16T04:02:09;14.50;99.90
27026;DHT22;14565;48.626;8.978;2022-10-16T04:04:35;14.50;99.90
27026;DHT22;14565;48.626;8.978;2022-10-16T04:07:01;14.50;99.90
27026;DHT22;14565;48.626;8.978;2022-10-16T04:09:26;14.60;99.90
27026;DHT22;14565;48.626;8.978;2022-10-16T04:11:52;14.50;99.90
27026;DHT22;14565;48.626;8.978;2022-10-16T04:14:18;14.50;99.90
27026;DHT22;14565;48.626;8.978;2022-10-16T04:16:43;14.50;99.90
27026;DHT22;14565;48.626;8.978;2022-10-16T04:19:10;14.50;99.90
27026;DHT22;14565;48.626;8.978;2022-10-16T04:21:36;14.50;99.90
27026;DHT22;14565;48.626;8.978;2022-10-16T04:24:02;14.50;99.90
27026;DHT22;14565;48.626;8.978;2022-10-16T04:26:28;14.50;99.90
27026;DHT22;14565;48.626;8.978;2022-10-16T04:28:53;14.50;99.90
27026;DHT22;14565;48.626;8.978;2022-10-16T04:31:19;14.50;99.90
27026;DHT22;14565;48.626;8.978;2022-10-16T04:33:45;14.50;99.90
27026;DHT22;14565;48.626;8.978;2022-10-16T04:36:11;14.50;99.90
27026;DHT22;14565;48.626;8.978;2022-10-16T04:38:37;14.50;99.90
27026;DHT22;14565;48.626;8.978;2022-10-16T04:41:03;14.50;99.90
27026;DHT22;14565;48.626;8.978;2022-10-16T04:43:29;14.40;99.90
27026;DHT22;14565;48.626;8.978;2022-10-16T04:45:55;14.50;99.90
27026;DHT22;14565;48.626;8.978;2022-10-16T04:48:22;14.50;99.90
27026;DHT22;14565;48.626;8.978;2022-10-16T04:50:48;14.50;99.90
27026;DHT22;14565;48.626;8.978;2022-10-16T04:53:13;14.50;99.90
27026;DHT22;14565;48.626;8.978;2022-10-16T04:55:40;14.50;99.90
27026;DHT22;14565;48.626;8.978;2022-10-16T04:58:06;14.50;99.90
27026;DHT22;14565;48.626;8.978;2022-10-16T05:00:32;14.40;99.90
27026;DHT22;14565;48.626;8.978;2022-10-16T05:02:58;14.40;99.90
27026;DHT22;14565;48.626;8.978;2022-10-16T05:05:26;14.40;99.90
27026;DHT22;14565;48.626;8.978;2022-10-16T05:07:53;14.30;99.90
27026;DHT22;14565;48.626;8.978;2022-10-16T05:10:19;14.30;99.90
27026;DHT22;14565;48.626;8.978;2022-10-16T05:12:46;14.30;99.90
27026;DHT22;14565;48.626;8.978;2022-10-16T05:15:12;14.30;99.90
27026;DHT22;14565;48.626;8.978;2022-10-16T05:17:37;14.10;99.90
27026;DHT22;14565;48.626;8.978;2022-10-16T05:20:03;14.00;99.90
27026;DHT22;14565;48.626;8.978;2022-10-16T05:22:29;13.90;99.90
27026;DHT22;14565;48.626;8.978;2022-10-16T05:24:55;13.80;99.90
27026;DHT22;14565;48.626;8.978;2022-10-16T05:27:21;13.80;99.90
27026;DHT22;14565;48.626;8.978;2022-10-16T05:29:47;13.70;99.90
27026;DHT22;14565;48.626;8.978;2022-10-16T05:32:14;13.70;99.90
27026;DHT22;14565;48.626;8.978;2022-10-16T05:34:40;13.60;99.90
27026;DHT22;14565;48.626;8.978;2022-10-16T05:37:06;13.60;99.90
27026;DHT22;14565;48.626;8.978;2022-10-16T05:39:31;13.60;99.90
27026;DHT22;14565;48.626;8.978;2022-10-16T05:41:57;13.50;99.90
27026;DHT22;14565;48.626;8.978;2022-10-16T05:44:23;13.50;99.90
27026;DHT22;14565;48.626;8.978;2022-10-16T05:46:48;13.50;99.90
27026;DHT22;14565;48.626;8.978;2022-10-16T05:49:14;13.60;99.90
27026;DHT22;14565;48.626;8.978;2022-10-16T05:51:40;13.50;99.90
27026;DHT22;14565;48.626;8.978;2022-10-16T05:54:07;13.60;99.90
27026;DHT22;14565;48.626;8.978;2022-10-16T05:56:32;13.60;99.90
27026;DHT22;14565;48.626;8.978;2022-10-16T05:58:58;13.70;99.90
27026;DHT22;14565;48.626;8.978;2022-10-16T06:01:24;13.70;99.90
27026;DHT22;14565;48.626;8.978;2022-10-16T06:03:53;13.80;99.90
27026;DHT22;14565;48.626;8.978;2022-10-16T06:06:23;13.90;99.90
27026;DHT22;14565;48.626;8.978;2022-10-16T06:08:52;14.00;99.90
27026;DHT22;14565;48.626;8.978;2022-10-16T06:11:20;14.00;99.90
27026;DHT22;14565;48.626;8.978;2022-10-16T06:13:54;14.00;99.90
27026;DHT22;14565;48.626;8.978;2022-10-16T06:16:22;14.10;99.90
27026;DHT22;14565;48.626;8.978;2022-10-16T06:18:51;14.10;99.90
27026;DHT22;14565;48.626;8.978;2022-10-16T06:21:20;14.10;99.90
27026;DHT22;14565;48.626;8.978;2022-10-16T06:23:47;14.20;99.90
27026;DHT22;14565;48.626;8.978;2022-10-16T06:26:15;14.20;99.90
27026;DHT22;14565;48.626;8.978;2022-10-16T06:28:40;14.30;99.90
27026;DHT22;14565;48.626;8.978;2022-10-16T06:31:08;14.30;99.90
27026;DHT22;14565;48.626;8.978;2022-10-16T06:33:34;14.40;99.90
27026;DHT22;14565;48.626;8.978;2022-10-16T06:36:01;14.40;99.90
27026;DHT22;14565;48.626;8.978;2022-10-16T06:38:28;14.50;99.90
27026;DHT22;14565;48.626;8.978;2022-10-16T06:40:53;14.60;99.90
27026;DHT22;14565;48.626;8.978;2022-10-16T06:43:19;14.60;99.90
27026;DHT22;14565;48.626;8.978;2022-10-16T06:45:54;14.80;99.90
27026;DHT22;14565;48.626;8.978;2022-10-16T06:48:20;14.90;99.90
27026;DHT22;14565;48.626;8.978;2022-10-16T06:51:00;15.00;99.90
27026;DHT22;14565;48.626;8.978;2022-10-16T06:53:28;15.00;99.90
27026;DHT22;14565;48.626;8.978;2022-10-16T06:55:54;15.00;99.90
27026;DHT22;14565;48.626;8.978;2022-10-16T06:58:20;15.00;99.90
27026;DHT22;14565;48.626;8.978;2022-10-16T07:00:46;15.00;99.90
27026;DHT22;14565;48.626;8.978;2022-10-16T07:05:43;15.00;99.90
27026;DHT22;14565;48.626;8.978;2022-10-16T07:08:09;15.10;99.90
27026;DHT22;14565;48.626;8.978;2022-10-16T07:10:35;15.10;99.90
27026;DHT22;14565;48.626;8.978;2022-10-16T07:13:01;15.10;99.90
27026;DHT22;14565;48.626;8.978;2022-10-16T07:15:27;15.10;99.90
27026;DHT22;14565;48.626;8.978;2022-10-16T07:17:53;15.20;99.90
27026;DHT22;14565;48.626;8.978;2022-10-16T07:20:19;15.10;99.90
27026;DHT22;14565;48.626;8.978;2022-10-16T07:22:45;15.10;99.90
27026;DHT22;14565;48.626;8.978;2022-10-16T07:25:11;15.10;99.90
27026;DHT22;14565;48.626;8.978;2022-10-16T07:27:37;15.00;99.90
27026;DHT22;14565;48.626;8.978;2022-10-16T07:30:03;15.00;99.90
27026;DHT22;14565;48.626;8.978;2022-10-16T07:32:29;15.10;99.90
27026;DHT22;14565;48.626;8.978;2022-10-16T07:34:55;15.10;99.90
27026;DHT22;14565;48.626;8.978;2022-10-16T07:37:21;15.00;99.90
27026;DHT22;14565;48.626;8.978;2022-10-16T07:39:47;15.10;99.90
27026;DHT22;14565;48.626;8.978;2022-10-16T07:42:12;15.10;99.90
27026;DHT22;14565;48.626;8.978;2022-10-16T07:44:38;15.20;99.90
27026;DHT22;14565;48.626;8.978;2022-10-16T07:47:05;15.30;99.90
27026;DHT22;14565;48.626;8.978;2022-10-16T07:49:31;15.40;99.90
27026;DHT22;14565;48.626;8.978;2022-10-16T07:51:56;15.40;99.90
27026;DHT22;14565;48.626;8.978;2022-10-16T07:54:22;15.40;99.90
27026;DHT22;14565;48.626;8.978;2022-10-16T07:56:47;15.40;99.90
27026;DHT22;14565;48.626;8.978;2022-10-16T07:59:13;15.40;99.90
27026;DHT22;14565;48.626;8.978;2022-10-16T08:01:39;15.50;99.90
27026;DHT22;14565;48.626;8.978;2022-10-16T08:04:05;15.50;99.90
27026;DHT22;14565;48.626;8.978;2022-10-16T08:06:36;15.50;99.90
27026;DHT22;14565;48.626;8.978;2022-10-16T08:09:02;15.50;99.90
27026;DHT22;14565;48.626;8.978;2022-10-16T08:11:28;15.60;99.90
27026;DHT22;14565;48.626;8.978;2022-10-16T08:13:53;15.70;99.90
27026;DHT22;14565;48.626;8.978;2022-10-16T08:16:20;15.80;99.90
27026;DHT22;14565;48.626;8.978;2022-10-16T08:18:46;15.90;99.90
27026;DHT22;14565;48.626;8.978;2022-10-16T08:21:17;16.20;99.90
27026;DHT22;14565;48.626;8.978;2022-10-16T08:23:43;16.30;99.90
27026;DHT22;14565;48.626;8.978;2022-10-16T08:26:10;16.40;99.90
27026;DHT22;14565;48.626;8.978;2022-10-16T08:28:36;16.40;99.90
27026;DHT22;14565;48.626;8.978;2022-10-16T08:31:12;16.40;99.90
27026;DHT22;14565;48.626;8.978;2022-10-16T08:33:40;16.50;99.90
27026;DHT22;14565;48.626;8.978;2022-10-16T08:36:06;16.50;99.90
27026;DHT22;14565;48.626;8.978;2022-10-16T08:38:33;16.40;99.90
27026;DHT22;14565;48.626;8.978;2022-10-16T08:48:53;16.30;99.90
27026;DHT22;14565;48.626;8.978;2022-10-16T08:51:32;16.30;99.90
27026;DHT22;14565;48.626;8.978;2022-10-16T08:56:42;16.30;99.90
27026;DHT22;14565;48.626;8.978;2022-10-16T08:59:10;16.40;99.90
27026;DHT22;14565;48.626;8.978;2022-10-16T09:01:43;16.40;99.90
27026;DHT22;14565;48.626;8.978;2022-10-16T09:04:38;16.60;99.90
27026;DHT22;14565;48.626;8.978;2022-10-16T09:07:22;16.70;99.90
27026;DHT22;14565;48.626;8.978;2022-10-16T09:18:32;17.00;99.90
27026;DHT22;14565;48.626;8.978;2022-10-16T09:23:35;17.40;99.90
27026;DHT22;14565;48.626;8.978;2022-10-16T09:26:01;17.70;99.90
27026;DHT22;14565;48.626;8.978;2022-10-16T09:28:28;17.90;99.90
27026;DHT22;14565;48.626;8.978;2022-10-16T09:30:53;18.10;99.90
27026;DHT22;14565;48.626;8.978;2022-10-16T09:33:23;18.60;99.90
27026;DHT22;14565;48.626;8.978;2022-10-16T09:35:53;18.60;99.90
27026;DHT22;14565;48.626;8.978;2022-10-16T09:38:29;18.70;99.90
27026;DHT22;14565;48.626;8.978;2022-10-16T09:41:00;18.80;99.90
27026;DHT22;14565;48.626;8.978;2022-10-16T09:43:34;19.20;99.90
27026;DHT22;14565;48.626;8.978;2022-10-16T09:46:06;19.60;99.90
27026;DHT22;14565;48.626;8.978;2022-10-16T09:48:48;19.70;99.90
27026;DHT22;14565;48.626;8.978;2022-10-16T09:51:33;20.10;99.90
27026;DHT22;14565;48.626;8.978;2022-10-16T09:54:21;20.20;99.90
27026;DHT22;14565;48.626;8.978;2022-10-16T09:56:47;19.90;99.90
27026;DHT22;14565;48.626;8.978;2022-10-16T09:59:21;20.20;99.90
27026;DHT22;14565;48.626;8.978;2022-10-16T10:01:55;20.20;99.90
27026;DHT22;14565;48.626;8.978;2022-10-16T10:04:23;20.10;99.90
27026;DHT22;14565;48.626;8.978;2022-10-16T10:06:57;20.10;99.90
27026;DHT22;14565;48.626;8.978;2022-10-16T10:09:25;19.90;99.90
27026;DHT22;14565;48.626;8.978;2022-10-16T10:16:47;20.30;99.90
27026;DHT22;14565;48.626;8.978;2022-10-16T10:19:23;20.30;99.90
27026;DHT22;14565;48.626;8.978;2022-10-16T10:21:52;20.50;99.90
27026;DHT22;14565;48.626;8.978;2022-10-16T10:24:19;20.40;99.90
27026;DHT22;14565;48.626;8.978;2022-10-16T10:26:57;20.50;99.90
27026;DHT22;14565;48.626;8.978;2022-10-16T10:29:41;20.30;99.90
27026;DHT22;14565;48.626;8.978;2022-10-16T10:32:31;20.20;99.90
27026;DHT22;14565;48.626;8.978;2022-10-16T10:38:00;20.70;99.90
27026;DHT22;14565;48.626;8.978;2022-10-16T10:46:05;20.80;99.90
27026;DHT22;14565;48.626;8.978;2022-10-16T10:51:28;21.20;99.90
27026;DHT22;14565;48.626;8.978;2022-10-16T10:54:41;21.00;99.90
27026;DHT22;14565;48.626;8.978;2022-10-16T10:57:07;20.90;99.90
27026;DHT22;14565;48.626;8.978;2022-10-16T11:08:00;20.60;99.90
27026;DHT22;14565;48.626;8.978;2022-10-16T11:10:36;20.80;99.90
27026;DHT22;14565;48.626;8.978;2022-10-16T11:24:45;21.50;99.90
27026;DHT22;14565;48.626;8.978;2022-10-16T11:27:17;21.50;99.90
27026;DHT22;14565;48.626;8.978;2022-10-16T11:29:57;21.90;99.90
27026;DHT22;14565;48.626;8.978;2022-10-16T11:32:43;22.00;99.90
27026;DHT22;14565;48.626;8.978;2022-10-16T11:35:17;22.00;99.90
27026;DHT22;14565;48.626;8.978;2022-10-16T11:37:46;22.10;99.90
27026;DHT22;14565;48.626;8.978;2022-10-16T11:40:25;22.00;99.90
27026;DHT22;14565;48.626;8.978;2022-10-16T11:45:57;21.80;99.90
27026;DHT22;14565;48.626;8.978;2022-10-16T11:56:23;21.80;99.90
27026;DHT22;14565;48.626;8.978;2022-10-16T11:59:08;21.90;99.90
27026;DHT22;14565;48.626;8.978;2022-10-16T12:01:47;21.90;99.90
27026;DHT22;14565;48.626;8.978;2022-10-16T12:07:23;22.20;99.90
27026;DHT22;14565;48.626;8.978;2022-10-16T12:09:50;22.40;99.90
27026;DHT22;14565;48.626;8.978;2022-10-16T12:12:26;22.20;99.90
27026;DHT22;14565;48.626;8.978;2022-10-16T12:17:44;22.30;99.90
27026;DHT22;14565;48.626;8.978;2022-10-16T12:20:21;22.30;99.90
27026;DHT22;14565;48.626;8.978;2022-10-16T12:22:59;22.40;99.90
27026;DHT22;14565;48.626;8.978;2022-10-16T12:25:39;22.30;99.90
27026;DHT22;14565;48.626;8.978;2022-10-16T12:30:41;22.90;99.90
27026;DHT22;14565;48.626;8.978;2022-10-16T12:33:21;22.80;99.90
27026;DHT22;14565;48.626;8.978;2022-10-16T12:35:48;22.70;99.90
27026;DHT22;14565;48.626;8.978;2022-10-16T12:38:24;22.20;99.90
27026;DHT22;14565;48.626;8.978;2022-10-16T12:43:27;21.90;99.90
27026;DHT22;14565;48.626;8.978;2022-10-16T12:49:50;22.20;99.90
27026;DHT22;14565;48.626;8.978;2022-10-16T12:51:54;22.40;99.90
27026;DHT22;14565;48.626;8.978;2022-10-16T12:54:22;22.60;99.90
27026;DHT22;14565;48.626;8.978;2022-10-16T13:18:43;23.10;99.90
27026;DHT22;14565;48.626;8.978;2022-10-16T13:29:20;22.90;99.90
27026;DHT22;14565;48.626;8.978;2022-10-16T13:31:46;22.10;99.90
27026;DHT22;14565;48.626;8.978;2022-10-16T13:34:21;22.10;99.90
27026;DHT22;14565;48.626;8.978;2022-10-16T13:36:52;22.00;99.90
27026;DHT22;14565;48.626;8.978;2022-10-16T13:39:25;22.20;99.90
27026;DHT22;14565;48.626;8.978;2022-10-16T13:42:04;22.30;99.90
27026;DHT22;14565;48.626;8.978;2022-10-16T13:44:42;22.30;99.90
27026;DHT22;14565;48.626;8.978;2022-10-16T13:47:27;22.10;99.90
27026;DHT22;14565;48.626;8.978;2022-10-16T13:50:22;22.00;99.90
27026;DHT22;14565;48.626;8.978;2022-10-16T13:52:48;21.90;99.90
27026;DHT22;14565;48.626;8.978;2022-10-16T13:55:16;22.00;99.90
27026;DHT22;14565;48.626;8.978;2022-10-16T13:57:43;22.20;99.90
27026;DHT22;14565;48.626;8.978;2022-10-16T14:02:43;22.30;99.90
27026;DHT22;14565;48.626;8.978;2022-10-16T14:05:10;22.30;99.90
27026;DHT22;14565;48.626;8.978;2022-10-16T14:07:36;22.00;99.90
27026;DHT22;14565;48.626;8.978;2022-10-16T14:10:06;22.10;99.90
27026;DHT22;14565;48.626;8.978;2022-10-16T14:12:32;22.10;99.90
27026;DHT22;14565;48.626;8.978;2022-10-16T14:14:59;22.20;99.90
27026;DHT22;14565;48.626;8.978;2022-10-16T14:17:31;22.20;99.90
27026;DHT22;14565;48.626;8.978;2022-10-16T14:20:00;22.20;99.90
27026;DHT22;14565;48.626;8.978;2022-10-16T14:22:38;22.20;99.90
27026;DHT22;14565;48.626;8.978;2022-10-16T14:30:32;22.50;99.90
27026;DHT22;14565;48.626;8.978;2022-10-16T14:35:34;22.40;99.90
27026;DHT22;14565;48.626;8.978;2022-10-16T14:38:02;22.30;99.90
27026;DHT22;14565;48.626;8.978;2022-10-16T14:40:32;22.10;99.90
27026;DHT22;14565;48.626;8.978;2022-10-16T14:42:58;22.10;99.90
27026;DHT22;14565;48.626;8.978;2022-10-16T14:45:27;22.20;99.90
27026;DHT22;14565;48.626;8.978;2022-10-16T14:48:15;22.00;99.90
27026;DHT22;14565;48.626;8.978;2022-10-16T14:50:42;22.00;99.90
27026;DHT22;14565;48.626;8.978;2022-10-16T14:53:11;21.90;99.90
27026;DHT22;14565;48.626;8.978;2022-10-16T14:55:38;21.70;99.90
27026;DHT22;14565;48.626;8.978;2022-10-16T14:58:04;21.70;99.90
27026;DHT22;14565;48.626;8.978;2022-10-16T15:00:29;21.60;99.90
27026;DHT22;14565;48.626;8.978;2022-10-16T15:02:55;21.60;99.90
27026;DHT22;14565;48.626;8.978;2022-10-16T15:05:23;21.60;99.90
27026;DHT22;14565;48.626;8.978;2022-10-16T15:07:50;21.60;99.90
27026;DHT22;14565;48.626;8.978;2022-10-16T15:10:17;21.50;99.90
27026;DHT22;14565;48.626;8.978;2022-10-16T15:12:43;21.30;99.90
27026;DHT22;14565;48.626;8.978;2022-10-16T15:15:37;21.50;99.90
27026;DHT22;14565;48.626;8.978;2022-10-16T15:18:04;21.30;99.90
27026;DHT22;14565;48.626;8.978;2022-10-16T15:20:36;21.20;99.90
27026;DHT22;14565;48.626;8.978;2022-10-16T15:23:16;21.10;99.90
27026;DHT22;14565;48.626;8.978;2022-10-16T15:28:10;21.10;99.90
27026;DHT22;14565;48.626;8.978;2022-10-16T15:30:37;20.90;99.90
27026;DHT22;14565;48.626;8.978;2022-10-16T15:33:03;20.90;99.90
27026;DHT22;14565;48.626;8.978;2022-10-16T15:35:29;20.80;99.90
27026;DHT22;14565;48.626;8.978;2022-10-16T15:37:55;20.70;99.90
27026;DHT22;14565;48.626;8.978;2022-10-16T15:40:21;20.60;99.90
27026;DHT22;14565;48.626;8.978;2022-10-16T15:42:48;20.40;99.90
27026;DHT22;14565;48.626;8.978;2022-10-16T15:45:15;20.40;99.90
27026;DHT22;14565;48.626;8.978;2022-10-16T15:47:41;20.40;99.90
27026;DHT22;14565;48.626;8.978;2022-10-16T15:50:10;20.20;99.90
27026;DHT22;14565;48.626;8.978;2022-10-16T15:52:36;20.10;99.90
27026;DHT22;14565;48.626;8.978;2022-10-16T15:55:02;19.90;99.90
27026;DHT22;14565;48.626;8.978;2022-10-16T15:57:28;19.80;99.90
27026;DHT22;14565;48.626;8.978;2022-10-16T15:59:54;19.70;99.90
27026;DHT22;14565;48.626;8.978;2022-10-16T16:02:20;19.70;99.90
27026;DHT22;14565;48.626;8.978;2022-10-16T16:04:46;19.50;99.90
27026;DHT22;14565;48.626;8.978;2022-10-16T16:07:12;19.30;99.90
27026;DHT22;14565;48.626;8.978;2022-10-16T16:09:38;19.20;99.90
27026;DHT22;14565;48.626;8.978;2022-10-16T16:12:03;19.10;99.90
27026;DHT22;14565;48.626;8.978;2022-10-16T16:14:29;19.00;99.90
27026;DHT22;14565;48.626;8.978;2022-10-16T16:16:55;18.90;99.90
27026;DHT22;14565;48.626;8.978;2022-10-16T16:19:21;18.70;99.90
27026;DHT22;14565;48.626;8.978;2022-10-16T16:21:48;18.60;99.90
27026;DHT22;14565;48.626;8.978;2022-10-16T16:24:13;18.50;99.90
27026;DHT22;14565;48.626;8.978;2022-10-16T16:26:39;18.40;99.90
27026;DHT22;14565;48.626;8.978;2022-10-16T16:29:13;18.30;99.90
27026;DHT22;14565;48.626;8.978;2022-10-16T16:31:40;18.20;99.90
27026;DHT22;14565;48.626;8.978;2022-10-16T16:34:06;18.10;99.90
27026;DHT22;14565;48.626;8.978;2022-10-16T16:36:32;18.00;99.90
27026;DHT22;14565;48.626;8.978;2022-10-16T16:38:58;17.90;99.90
27026;DHT22;14565;48.626;8.978;2022-10-16T16:41:27;17.80;99.90
27026;DHT22;14565;48.626;8.978;2022-10-16T16:43:54;17.70;99.90
27026;DHT22;14565;48.626;8.978;2022-10-16T16:46:20;17.50;99.90
27026;DHT22;14565;48.626;8.978;2022-10-16T16:48:47;17.50;99.90
27026;DHT22;14565;48.626;8.978;2022-10-16T16:51:16;17.40;99.90
27026;DHT22;14565;48.626;8.978;2022-10-16T16:53:44;17.30;99.90
27026;DHT22;14565;48.626;8.978;2022-10-16T16:56:10;17.20;99.90
27026;DHT22;14565;48.626;8.978;2022-10-16T16:58:36;17.10;99.90
27026;DHT22;14565;48.626;8.978;2022-10-16T17:01:02;17.00;99.90
27026;DHT22;14565;48.626;8.978;2022-10-16T17:03:29;17.00;99.90
27026;DHT22;14565;48.626;8.978;2022-10-16T17:05:57;17.10;99.90
27026;DHT22;14565;48.626;8.978;2022-10-16T17:08:23;17.00;99.90
27026;DHT22;14565;48.626;8.978;2022-10-16T17:10:48;17.00;99.90
27026;DHT22;14565;48.626;8.978;2022-10-16T17:13:19;17.00;99.90
27026;DHT22;14565;48.626;8.978;2022-10-16T17:15:49;16.90;99.90
27026;DHT22;14565;48.626;8.978;2022-10-16T17:18:15;16.90;99.90
27026;DHT22;14565;48.626;8.978;2022-10-16T17:20:41;16.80;99.90
27026;DHT22;14565;48.626;8.978;2022-10-16T17:23:08;16.80;99.90
27026;DHT22;14565;48.626;8.978;2022-10-16T17:25:41;16.80;99.90
27026;DHT22;14565;48.626;8.978;2022-10-16T17:28:08;16.70;99.90
27026;DHT22;14565;48.626;8.978;2022-10-16T17:30:36;16.70;99.90
27026;DHT22;14565;48.626;8.978;2022-10-16T17:33:03;16.70;99.90
27026;DHT22;14565;48.626;8.978;2022-10-16T17:35:35;16.70;99.90
27026;DHT22;14565;48.626;8.978;2022-10-16T17:38:01;16.70;99.90
27026;DHT22;14565;48.626;8.978;2022-10-16T17:40:26;16.70;99.90
27026;DHT22;14565;48.626;8.978;2022-10-16T17:42:52;16.70;99.90
27026;DHT22;14565;48.626;8.978;2022-10-16T17:45:18;16.80;99.90
27026;DHT22;14565;48.626;8.978;2022-10-16T17:47:43;16.70;99.90
27026;DHT22;14565;48.626;8.978;2022-10-16T17:50:09;16.60;99.90
27026;DHT22;14565;48.626;8.978;2022-10-16T17:52:34;16.50;99.90
27026;DHT22;14565;48.626;8.978;2022-10-16T17:55:00;16.40;99.90
27026;DHT22;14565;48.626;8.978;2022-10-16T17:57:26;16.20;99.90
27026;DHT22;14565;48.626;8.978;2022-10-16T17:59:53;16.00;99.90
27026;DHT22;14565;48.626;8.978;2022-10-16T18:02:19;15.80;99.90
27026;DHT22;14565;48.626;8.978;2022-10-16T18:04:45;15.80;99.90
27026;DHT22;14565;48.626;8.978;2022-10-16T18:07:10;15.70;99.90
27026;DHT22;14565;48.626;8.978;2022-10-16T18:09:36;15.60;99.90
27026;DHT22;14565;48.626;8.978;2022-10-16T18:12:02;15.60;99.90